Orsola Bottiglieri — ICQN — position and weather

sailwx.info

Track history (hours):
 
Tides and Currents Weather Stations Pressure Air Temp Water Temp Dewpoint Dewpoint Depression Visibility Wind Speed Wind Dir Waves Ship Positions

Orsola Bottiglieri

Last reported at 2017-Jul-25 17:58 UTC. Time now 2017-Aug-18 22:13 UTC.
Position N 25°26' W 079°34'.
Warning: this ship's position is 24 days out of date.

Length 292 m; draft 10.3 m.

Type: Cargo ship. MMSI: 247304400.

Date/timePositionNaut miles runAvg speedWind from/ knotsBaromVisibWave heightAir tempDewpointWater temp
2017-Jul-25 17:58N 25°26' W 079°34'510.6
2017-Jul-25 17:30N 25°31' W 079°33'510.3
2017-Jul-25 17:00N 25°36' W 079°33'510.1
2017-Jul-25 16:30N 25°41' W 079°33'610.0
2017-Jul-25 15:55N 25°47' W 079°33'1110.2
2017-Jul-25 14:51N 25°58' W 079°30'1210.4
2017-Jul-25 13:40N 26°10' W 079°27'210.9
2017-Jul-25 13:30N 26°11' W 079°26'611.7
2017-Jul-25 13:00N 26°14' W 079°20'  
2017-Jul-16 18:16N 37°29' W 030°53'310.9
2017-Jul-16 18:00N 37°29' W 030°49'2511.5
2017-Jul-16 15:47N 37°31' W 030°17'311.3
2017-Jul-16 15:31N 37°31' W 030°13'611.7
2017-Jul-16 15:00N 37°31' W 030°06'611.7
2017-Jul-16 14:30N 37°32' W 029°58'611.8
2017-Jul-16 14:00N 37°32' W 029°51'612.6
2017-Jul-16 13:30N 37°32' W 029°43'612.5
2017-Jul-16 13:01N 37°33' W 029°35'612.5
2017-Jul-16 12:30N 37°33' W 029°27'612.4
2017-Jul-16 12:00N 37°33' W 029°19'612.5
2017-Jul-16 11:30N 37°33' W 029°12'713.0
2017-Jul-16 11:00N 37°33' W 029°03'713.2
2017-Jul-16 10:30N 37°33' W 028°55'612.8
2017-Jul-16 10:00N 37°34' W 028°47'612.3
2017-Jul-16 09:30N 37°34' W 028°39'612.5
2017-Jul-16 09:00N 37°34' W 028°31'612.3
2017-Jul-16 08:30N 37°34' W 028°24'612.3
2017-Jul-16 08:00N 37°34' W 028°16'612.1
2017-Jul-16 07:30N 37°34' W 028°08'612.8
2017-Jul-16 07:00N 37°35' W 028°00'713.0
2017-Jul-16 06:30N 37°35' W 027°52'713.0
2017-Jul-16 06:00N 37°35' W 027°44'612.5
2017-Jul-16 05:30N 37°35' W 027°36'612.3
2017-Jul-16 05:00N 37°35' W 027°28'612.3
2017-Jul-16 04:30N 37°35' W 027°20'612.1
2017-Jul-16 04:00N 37°35' W 027°13'612.5
2017-Jul-16 03:30N 37°36' W 027°05'612.5
2017-Jul-16 03:00N 37°36' W 026°57'612.6
2017-Jul-16 02:30N 37°36' W 026°49'612.6
2017-Jul-16 02:00N 37°36' W 026°41'612.1
2017-Jul-16 01:30N 37°36' W 026°33'612.8
2017-Jul-16 01:00N 37°36' W 026°25'612.6
2017-Jul-16 00:31N 37°36' W 026°17'612.4
2017-Jul-16 00:00N 37°36' W 026°10'612.6
2017-Jul-15 23:30N 37°36' W 026°02'612.5
2017-Jul-15 23:01N 37°36' W 025°54'612.1
2017-Jul-15 22:30N 37°36' W 025°46'612.6
2017-Jul-15 22:00N 37°36' W 025°38'612.3
2017-Jul-15 21:31N 37°36' W 025°30'612.2
2017-Jul-15 21:01N 37°36' W 025°23'612.2
2017-Jul-15 20:31N 37°36' W 025°15'612.2
2017-Jul-15 20:00N 37°36' W 025°07'612.7
2017-Jul-15 19:30N 37°36' W 024°59'612.8
2017-Jul-15 19:00N 37°35' W 024°51'612.7
2017-Jul-15 18:30N 37°35' W 024°43'612.5
2017-Jul-15 18:00N 37°35' W 024°35'  
Track history (hours):
 
Tides and Currents Weather Stations Pressure Air Temp Water Temp Dewpoint Dewpoint Depression Visibility Wind Speed Wind Dir Waves Ship Positions

Orsola Bottiglieri

Last reported at 2017-Jul-25 17:58 UTC. Time now 2017-Aug-18 22:13 UTC.
Position N 25°26' W 079°34'.
Warning: this ship's position is 24 days out of date.

Length 292 m; draft 10.3 m.

Type: Cargo ship. MMSI: 247304400.

Date/timePositionNaut miles runAvg speedWind from/ knotsBaromVisibWave heightAir tempDewpointWater temp
2017-Jul-25 17:58N 25°26' W 079°34'510.6
2017-Jul-25 17:30N 25°31' W 079°33'510.3
2017-Jul-25 17:00N 25°36' W 079°33'510.1
2017-Jul-25 16:30N 25°41' W 079°33'610.0
2017-Jul-25 15:55N 25°47' W 079°33'1110.2
2017-Jul-25 14:51N 25°58' W 079°30'1210.4
2017-Jul-25 13:40N 26°10' W 079°27'210.9
2017-Jul-25 13:30N 26°11' W 079°26'611.7
2017-Jul-25 13:00N 26°14' W 079°20'  
2017-Jul-16 18:16N 37°29' W 030°53'310.9
2017-Jul-16 18:00N 37°29' W 030°49'2511.5
2017-Jul-16 15:47N 37°31' W 030°17'311.3
2017-Jul-16 15:31N 37°31' W 030°13'611.7
2017-Jul-16 15:00N 37°31' W 030°06'611.7
2017-Jul-16 14:30N 37°32' W 029°58'611.8
2017-Jul-16 14:00N 37°32' W 029°51'612.6
2017-Jul-16 13:30N 37°32' W 029°43'612.5
2017-Jul-16 13:01N 37°33' W 029°35'612.5
2017-Jul-16 12:30N 37°33' W 029°27'612.4
2017-Jul-16 12:00N 37°33' W 029°19'612.5
2017-Jul-16 11:30N 37°33' W 029°12'713.0
2017-Jul-16 11:00N 37°33' W 029°03'713.2
2017-Jul-16 10:30N 37°33' W 028°55'612.8
2017-Jul-16 10:00N 37°34' W 028°47'612.3
2017-Jul-16 09:30N 37°34' W 028°39'612.5
2017-Jul-16 09:00N 37°34' W 028°31'612.3
2017-Jul-16 08:30N 37°34' W 028°24'612.3
2017-Jul-16 08:00N 37°34' W 028°16'612.1
2017-Jul-16 07:30N 37°34' W 028°08'612.8
2017-Jul-16 07:00N 37°35' W 028°00'713.0
2017-Jul-16 06:30N 37°35' W 027°52'713.0
2017-Jul-16 06:00N 37°35' W 027°44'612.5
2017-Jul-16 05:30N 37°35' W 027°36'612.3
2017-Jul-16 05:00N 37°35' W 027°28'612.3
2017-Jul-16 04:30N 37°35' W 027°20'612.1
2017-Jul-16 04:00N 37°35' W 027°13'612.5
2017-Jul-16 03:30N 37°36' W 027°05'612.5
2017-Jul-16 03:00N 37°36' W 026°57'612.6
2017-Jul-16 02:30N 37°36' W 026°49'612.6
2017-Jul-16 02:00N 37°36' W 026°41'612.1
2017-Jul-16 01:30N 37°36' W 026°33'612.8
2017-Jul-16 01:00N 37°36' W 026°25'612.6
2017-Jul-16 00:31N 37°36' W 026°17'612.4
2017-Jul-16 00:00N 37°36' W 026°10'612.6
2017-Jul-15 23:30N 37°36' W 026°02'612.5
2017-Jul-15 23:01N 37°36' W 025°54'612.1
2017-Jul-15 22:30N 37°36' W 025°46'612.6
2017-Jul-15 22:00N 37°36' W 025°38'612.3
2017-Jul-15 21:31N 37°36' W 025°30'612.2
2017-Jul-15 21:01N 37°36' W 025°23'612.2
2017-Jul-15 20:31N 37°36' W 025°15'612.2
2017-Jul-15 20:00N 37°36' W 025°07'612.7
2017-Jul-15 19:30N 37°36' W 024°59'612.8
2017-Jul-15 19:00N 37°35' W 024°51'612.7
2017-Jul-15 18:30N 37°35' W 024°43'612.5
2017-Jul-15 18:00N 37°35' W 024°35'  

Dump ship's entire track history